Time;durP1;ratioP1;P1;durP2;ratioP2;P2;SDS_P1;SDS_P2;PMS_P1;PMS_P2;Temp;Humidity;BMP_temperature;BMP_pressure;BME280_temperature;BME280_humidity;BME280_pressure;Samples;Min_cycle;Max_cycle;Signal;HPM_P1;HPM_P2
2024/03/04 00:00:56;;;;;;;39.38;25.33;;;10.30;99.90;;;;;;4090514;28;20462;-70
2024/03/04 00:02:57;;;;;;;40.55;26.83;;;10.30;99.90;;;;;;4088724;28;20034;-70
2024/03/04 00:04:58;;;;;;;44.30;29.45;;;10.30;99.90;;;;;;4092790;28;20032;-70
2024/03/04 00:06:59;;;;;;;43.22;28.98;;;10.30;99.90;;;;;;4095095;28;20027;-70
2024/03/04 00:09:00;;;;;;;41.95;27.55;;;10.30;99.90;;;;;;4096542;28;20046;-69
2024/03/04 00:11:01;;;;;;;41.88;28.05;;;10.30;99.90;;;;;;4093466;28;20050;-71
2024/03/04 00:13:01;;;;;;;42.50;29.05;;;10.30;99.90;;;;;;4094252;28;20079;-70
2024/03/04 00:15:02;;;;;;;47.05;30.10;;;10.30;99.90;;;;;;4092625;28;20043;-69
2024/03/04 00:17:03;;;;;;;41.92;28.60;;;10.30;99.90;;;;;;4094861;28;20031;-70
2024/03/04 00:19:04;;;;;;;46.75;29.70;;;10.40;99.90;;;;;;4090217;28;20043;-69
2024/03/04 00:21:05;;;;;;;47.33;30.38;;;10.30;99.90;;;;;;4092278;28;20481;-70
2024/03/04 00:23:08;;;;;;;44.67;29.23;;;10.30;99.90;;;;;;4094502;28;20035;-71
2024/03/04 00:25:14;;;;;;;46.50;30.55;;;10.30;99.90;;;;;;4078576;29;20036;-71
2024/03/04 00:27:14;;;;;;;53.47;33.35;;;10.20;99.90;;;;;;4085855;29;20509;-70
2024/03/04 00:29:15;;;;;;;49.38;31.55;;;10.20;99.90;;;;;;4091223;28;20122;-70
2024/03/04 00:31:16;;;;;;;49.63;31.27;;;10.20;99.90;;;;;;4091926;28;20465;-70
2024/03/04 00:33:17;;;;;;;46.63;29.38;;;10.30;99.90;;;;;;4084164;28;20047;-69
2024/03/04 00:35:19;;;;;;;48.22;31.63;;;10.20;99.90;;;;;;4089378;28;20434;-69
2024/03/04 00:37:20;;;;;;;52.17;31.10;;;10.20;99.90;;;;;;4093219;28;20043;-69
2024/03/04 00:39:21;;;;;;;46.05;30.05;;;10.20;99.90;;;;;;4095974;28;20042;-70
2024/03/04 00:41:23;;;;;;;47.07;30.40;;;10.20;99.90;;;;;;4092897;28;20027;-69
2024/03/04 00:43:23;;;;;;;43.25;28.15;;;10.20;99.90;;;;;;4094129;28;20358;-71
2024/03/04 00:45:25;;;;;;;40.33;26.50;;;10.20;99.90;;;;;;4091060;28;20059;-70
2024/03/04 00:47:26;;;;;;;46.00;29.30;;;10.20;99.90;;;;;;4089869;28;20063;-69
2024/03/04 00:49:26;;;;;;;46.60;29.48;;;10.20;99.90;;;;;;4094708;28;20485;-69
2024/03/04 00:51:28;;;;;;;41.85;27.58;;;10.20;99.90;;;;;;4091119;28;20107;-69
2024/03/04 00:53:28;;;;;;;42.10;28.15;;;10.20;99.90;;;;;;4092221;28;20078;-72
2024/03/04 00:55:29;;;;;;;44.33;29.65;;;10.20;99.90;;;;;;4090436;28;20402;-71
2024/03/04 00:57:30;;;;;;;43.45;28.48;;;10.20;99.90;;;;;;4086198;28;20070;-70
2024/03/04 00:59:30;;;;;;;38.53;25.50;;;10.20;99.90;;;;;;4096593;28;20501;-70
2024/03/04 01:01:32;;;;;;;42.65;29.27;;;10.30;99.90;;;;;;4092417;28;20039;-69
2024/03/04 01:03:33;;;;;;;39.80;27.23;;;10.30;99.90;;;;;;4093178;28;20061;-69
2024/03/04 01:05:34;;;;;;;39.70;25.88;;;10.30;99.90;;;;;;4090018;28;20604;-69
2024/03/04 01:07:34;;;;;;;38.38;24.33;;;10.30;99.90;;;;;;4089376;28;21195;-70
2024/03/04 01:09:35;;;;;;;35.97;24.67;;;10.30;99.90;;;;;;4093501;28;20406;-69
2024/03/04 01:11:36;;;;;;;37.15;24.42;;;10.30;99.90;;;;;;4087135;28;20045;-71
2024/03/04 01:13:39;;;;;;;40.15;25.63;;;10.30;99.90;;;;;;4089988;28;20035;-71
2024/03/04 01:15:42;;;;;;;33.65;22.73;;;10.30;99.90;;;;;;4090429;28;20046;-71
2024/03/04 01:17:42;;;;;;;37.17;25.35;;;10.40;99.90;;;;;;4092115;28;20513;-70
2024/03/04 01:19:46;;;;;;;34.17;23.33;;;10.40;99.90;;;;;;4084312;28;20046;-71
2024/03/04 01:21:50;;;;;;;36.22;24.00;;;10.40;99.90;;;;;;4087194;28;20191;-72
2024/03/04 01:23:52;;;;;;;37.65;23.17;;;10.40;99.90;;;;;;4088931;28;20061;-71
2024/03/04 01:25:54;;;;;;;32.72;22.45;;;10.40;99.90;;;;;;4084724;28;20118;-71
2024/03/04 01:27:56;;;;;;;40.33;23.77;;;10.40;99.90;;;;;;4081422;28;20094;-71
2024/03/04 01:29:56;;;;;;;32.55;22.25;;;10.40;99.90;;;;;;4076644;28;20058;-71
2024/03/04 01:31:58;;;;;;;32.08;20.80;;;10.30;99.90;;;;;;4074624;28;20122;-71
2024/03/04 01:33:59;;;;;;;36.03;23.02;;;10.30;99.90;;;;;;4086471;28;20036;-71
2024/03/04 01:36:00;;;;;;;35.38;20.80;;;10.30;99.90;;;;;;4091478;28;20039;-70
2024/03/04 01:38:01;;;;;;;33.63;20.63;;;10.30;99.90;;;;;;4093663;28;20032;-71
2024/03/04 01:40:03;;;;;;;34.47;19.85;;;10.30;99.90;;;;;;4093463;28;20033;-70
2024/03/04 01:42:03;;;;;;;27.53;19.00;;;10.30;99.90;;;;;;4087879;28;20111;-70
2024/03/04 01:44:04;;;;;;;31.70;20.48;;;10.30;99.90;;;;;;4085319;28;20724;-71
2024/03/04 01:46:05;;;;;;;29.00;19.58;;;10.30;99.90;;;;;;4093391;28;20039;-71
2024/03/04 01:48:09;;;;;;;30.70;19.95;;;10.30;99.90;;;;;;4093691;28;20098;-71
2024/03/04 01:50:10;;;;;;;28.45;18.17;;;10.30;99.90;;;;;;4092920;28;20027;-70
2024/03/04 01:52:11;;;;;;;30.08;18.15;;;10.20;99.90;;;;;;4077614;28;20040;-71
2024/03/04 01:54:12;;;;;;;27.23;17.30;;;10.20;99.90;;;;;;4096453;28;20413;-71
2024/03/04 01:56:13;;;;;;;28.30;18.30;;;10.20;99.90;;;;;;4096004;28;20043;-71
2024/03/04 01:58:17;;;;;;;31.63;19.67;;;10.20;99.90;;;;;;4096868;28;20462;-71
2024/03/04 02:00:19;;;;;;;28.45;19.75;;;10.20;99.90;;;;;;4094503;28;20133;-70
2024/03/04 02:02:20;;;;;;;26.35;18.10;;;10.20;99.90;;;;;;4096207;28;20049;-69
2024/03/04 02:04:20;;;;;;;28.50;17.20;;;10.10;99.90;;;;;;4095233;28;20043;-68
2024/03/04 02:06:22;;;;;;;31.15;20.92;;;10.10;99.90;;;;;;4092357;28;20229;-70
2024/03/04 02:08:23;;;;;;;30.60;19.60;;;10.10;99.90;;;;;;4096010;28;20118;-68
2024/03/04 02:10:23;;;;;;;30.77;19.55;;;10.00;99.90;;;;;;4083622;29;20513;-68
2024/03/04 02:12:24;;;;;;;26.33;17.60;;;10.00;99.90;;;;;;4075790;29;20040;-68
2024/03/04 02:14:25;;;;;;;33.67;18.42;;;10.00;99.90;;;;;;4095732;28;20126;-68
2024/03/04 02:16:25;;;;;;;28.38;17.92;;;10.00;99.90;;;;;;4093276;28;20039;-68
2024/03/04 02:18:26;;;;;;;28.00;17.13;;;10.00;99.90;;;;;;4095961;28;20053;-69
2024/03/04 02:20:29;;;;;;;25.60;16.92;;;9.90;99.90;;;;;;4095045;28;20545;-69
2024/03/04 02:22:30;;;;;;;28.42;17.73;;;10.00;99.90;;;;;;4101406;28;20032;-69
2024/03/04 02:24:31;;;;;;;27.48;17.15;;;10.00;99.90;;;;;;4089680;28;20036;-69
2024/03/04 02:26:33;;;;;;;23.40;14.95;;;9.90;99.90;;;;;;4086348;28;20052;-68
2024/03/04 02:28:34;;;;;;;18.13;12.85;;;9.90;99.90;;;;;;4095890;28;20047;-69
2024/03/04 02:30:35;;;;;;;18.60;13.13;;;9.90;99.90;;;;;;4093462;28;20119;-69
2024/03/04 02:32:35;;;;;;;20.13;13.93;;;9.90;99.90;;;;;;4093513;28;20035;-69
2024/03/04 02:34:36;;;;;;;16.70;11.57;;;9.90;99.90;;;;;;4091899;28;20043;-69
2024/03/04 02:36:38;;;;;;;17.83;10.85;;;9.90;99.90;;;;;;4094395;28;20102;-69
2024/03/04 02:38:39;;;;;;;15.68;9.93;;;9.90;99.90;;;;;;4095551;28;20070;-69
2024/03/04 02:40:39;;;;;;;16.02;10.52;;;9.90;99.90;;;;;;4093829;28;20035;-67
2024/03/04 02:42:40;;;;;;;16.55;9.93;;;9.80;99.90;;;;;;4095776;28;20071;-66
2024/03/04 02:44:40;;;;;;;16.05;9.77;;;9.80;99.90;;;;;;4093843;28;20039;-67
2024/03/04 02:46:41;;;;;;;16.50;9.40;;;9.80;99.90;;;;;;4089837;28;20039;-68
2024/03/04 02:48:42;;;;;;;17.00;9.95;;;9.80;99.90;;;;;;4092878;28;20039;-68
2024/03/04 02:50:43;;;;;;;14.45;9.52;;;9.80;99.90;;;;;;4095624;28;20126;-68
2024/03/04 02:52:44;;;;;;;13.68;8.70;;;9.80;99.90;;;;;;4086600;29;20070;-69
2024/03/04 02:54:44;;;;;;;16.58;8.73;;;9.80;99.90;;;;;;4095805;28;20062;-67
2024/03/04 02:56:45;;;;;;;13.13;8.10;;;9.80;99.90;;;;;;4095414;28;20047;-67
2024/03/04 02:58:45;;;;;;;12.13;8.38;;;9.80;99.90;;;;;;4094679;28;20034;-67
2024/03/04 03:00:46;;;;;;;13.73;8.00;;;9.80;99.90;;;;;;4095603;28;20031;-67
2024/03/04 03:02:50;;;;;;;11.40;7.97;;;9.80;99.90;;;;;;4095198;28;20437;-69
2024/03/04 03:04:50;;;;;;;16.38;8.80;;;9.80;99.90;;;;;;4094089;28;20031;-68
2024/03/04 03:06:51;;;;;;;14.02;8.10;;;9.80;99.90;;;;;;4091966;28;20081;-68
2024/03/04 03:08:52;;;;;;;13.82;8.30;;;9.80;99.90;;;;;;4095251;28;20546;-68
2024/03/04 03:10:52;;;;;;;10.68;7.43;;;9.80;99.90;;;;;;4093119;28;20061;-68
2024/03/04 03:12:53;;;;;;;14.50;7.78;;;9.80;99.90;;;;;;4094144;28;20406;-68
2024/03/04 03:14:54;;;;;;;12.10;7.70;;;9.80;99.90;;;;;;4095282;28;20043;-68
2024/03/04 03:16:55;;;;;;;16.15;8.15;;;9.80;99.90;;;;;;4097964;28;20042;-67
2024/03/04 03:18:56;;;;;;;11.63;6.82;;;9.80;99.90;;;;;;4095485;28;20121;-67
2024/03/04 03:20:56;;;;;;;15.00;7.65;;;9.80;99.90;;;;;;4095402;28;20537;-68
2024/03/04 03:22:57;;;;;;;10.68;7.22;;;9.80;99.90;;;;;;4096206;28;20035;-68
2024/03/04 03:24:58;;;;;;;10.70;6.40;;;9.80;99.90;;;;;;4095966;28;20050;-67
2024/03/04 03:26:58;;;;;;;15.18;7.53;;;9.80;99.90;;;;;;4090207;28;20031;-68
2024/03/04 03:28:59;;;;;;;9.48;6.30;;;9.90;99.90;;;;;;4088395;28;20043;-67
2024/03/04 03:30:59;;;;;;;11.85;7.32;;;9.90;99.90;;;;;;4094148;28;20418;-67
2024/03/04 03:33:00;;;;;;;11.85;7.13;;;9.90;99.90;;;;;;4094909;28;20474;-67
2024/03/04 03:35:01;;;;;;;10.20;6.97;;;9.80;99.90;;;;;;4095167;28;20046;-68
2024/03/04 03:37:01;;;;;;;9.95;6.03;;;9.90;99.90;;;;;;4095658;28;20090;-67
2024/03/04 03:39:07;;;;;;;11.23;6.90;;;9.90;99.90;;;;;;4094321;28;20039;-68
2024/03/04 03:41:08;;;;;;;16.65;6.65;;;9.90;99.90;;;;;;4091606;28;20035;-69
2024/03/04 03:43:08;;;;;;;14.77;6.85;;;9.90;99.90;;;;;;4090607;28;20514;-67
2024/03/04 03:45:09;;;;;;;13.65;6.32;;;9.90;99.90;;;;;;4094732;28;20043;-69
2024/03/04 03:47:10;;;;;;;13.68;6.68;;;9.80;99.90;;;;;;4095579;28;20031;-68
2024/03/04 03:49:12;;;;;;;12.48;6.55;;;9.80;99.90;;;;;;4095138;28;20039;-66
2024/03/04 03:51:15;;;;;;;11.80;6.47;;;9.80;99.90;;;;;;4094076;28;20091;-68
2024/03/04 03:53:16;;;;;;;10.32;7.07;;;9.80;99.90;;;;;;4103966;28;20053;-68
2024/03/04 03:55:17;;;;;;;9.95;6.38;;;9.80;99.90;;;;;;4095857;28;20039;-69
2024/03/04 03:57:17;;;;;;;15.65;7.18;;;9.80;99.90;;;;;;4091864;28;20048;-68
2024/03/04 03:59:18;;;;;;;11.60;6.63;;;9.70;99.90;;;;;;4093197;28;20038;-69
2024/03/04 04:01:18;;;;;;;12.02;6.78;;;9.70;99.90;;;;;;4093206;28;20039;-67
2024/03/04 04:03:21;;;;;;;14.88;6.40;;;9.80;99.90;;;;;;4087103;29;20114;-69
2024/03/04 04:05:22;;;;;;;;;;;9.80;99.90;;;;;;4094362;28;20166;-67
2024/03/04 04:07:22;;;;;;;12.13;6.35;;;9.80;99.90;;;;;;4093416;28;20316;-67
2024/03/04 04:09:26;;;;;;;11.85;6.97;;;9.80;99.90;;;;;;4094858;28;20378;-67
2024/03/04 04:11:27;;;;;;;15.80;6.88;;;9.80;99.90;;;;;;4093685;28;20428;-68
2024/03/04 04:13:28;;;;;;;16.58;6.82;;;9.80;99.90;;;;;;4083272;28;20046;-68
2024/03/04 04:15:29;;;;;;;11.88;6.20;;;9.70;99.90;;;;;;4090814;28;20125;-68
2024/03/04 04:17:30;;;;;;;13.80;7.03;;;9.70;99.90;;;;;;4094803;28;20042;-68
2024/03/04 04:19:30;;;;;;;13.57;6.70;;;9.80;99.90;;;;;;4082150;28;20047;-70
2024/03/04 04:21:32;;;;;;;8.50;6.20;;;9.80;99.90;;;;;;4099371;28;20059;-68
2024/03/04 04:23:33;;;;;;;11.85;5.95;;;9.80;99.90;;;;;;4094356;28;20039;-71
2024/03/04 04:25:34;;;;;;;9.30;6.40;;;9.80;99.90;;;;;;4090624;28;20317;-70
2024/03/04 04:27:35;;;;;;;11.85;5.72;;;9.80;99.90;;;;;;4092425;28;20031;-69
2024/03/04 04:29:35;;;;;;;11.07;6.38;;;9.90;99.90;;;;;;4091967;28;20061;-70
2024/03/04 04:31:36;;;;;;;12.85;6.40;;;9.90;99.90;;;;;;4087764;28;20134;-71
2024/03/04 04:33:36;;;;;;;11.65;6.68;;;9.90;99.90;;;;;;4093038;28;20035;-70
2024/03/04 04:35:37;;;;;;;12.55;6.68;;;9.90;99.90;;;;;;4083641;28;20439;-70
2024/03/04 04:37:38;;;;;;;11.45;5.70;;;9.90;99.90;;;;;;4087289;28;20090;-69
2024/03/04 04:39:42;;;;;;;10.80;5.50;;;9.90;99.90;;;;;;4094658;28;20035;-70
2024/03/04 04:41:44;;;;;;;13.73;5.95;;;9.90;99.90;;;;;;4092434;28;20031;-70
2024/03/04 04:43:44;;;;;;;10.85;5.95;;;9.90;99.90;;;;;;4094542;28;20453;-70
2024/03/04 04:45:45;;;;;;;10.85;6.45;;;9.90;99.90;;;;;;4093240;28;20047;-69
2024/03/04 04:47:46;;;;;;;13.05;6.47;;;9.90;99.90;;;;;;4092947;28;20042;-70
2024/03/04 04:49:46;;;;;;;10.52;5.63;;;9.90;99.90;;;;;;4085801;28;20409;-70
2024/03/04 04:51:47;;;;;;;9.32;5.60;;;9.90;99.90;;;;;;4090356;28;20034;-70
2024/03/04 04:53:47;;;;;;;12.00;6.00;;;9.90;99.90;;;;;;4088133;28;20446;-70
2024/03/04 04:55:48;;;;;;;10.68;5.60;;;9.90;99.90;;;;;;4089399;28;20181;-70
2024/03/04 04:57:48;;;;;;;13.40;6.30;;;9.90;99.90;;;;;;4091858;28;20031;-71
2024/03/04 04:59:49;;;;;;;12.27;5.68;;;9.90;99.90;;;;;;4091810;28;20042;-71
2024/03/04 05:01:49;;;;;;;13.50;6.30;;;10.00;99.90;;;;;;4089297;28;20126;-70
2024/03/04 05:03:52;;;;;;;11.88;6.32;;;10.00;99.90;;;;;;4084451;28;20438;-70
2024/03/04 05:05:52;;;;;;;11.25;5.65;;;9.90;99.90;;;;;;4080985;28;20568;-68
2024/03/04 05:07:54;;;;;;;11.00;5.85;;;9.90;99.90;;;;;;4093831;28;20114;-70
2024/03/04 05:09:55;;;;;;;15.57;5.80;;;9.90;99.90;;;;;;4091370;28;20062;-71
2024/03/04 05:11:56;;;;;;;10.25;5.43;;;9.90;99.90;;;;;;4089973;28;20027;-70
2024/03/04 05:13:58;;;;;;;14.30;5.25;;;9.80;99.90;;;;;;4092112;28;20403;-69
2024/03/04 05:15:59;;;;;;;12.55;5.35;;;9.90;99.90;;;;;;4074026;29;20060;-69
2024/03/04 05:17:59;;;;;;;8.60;5.05;;;9.90;99.90;;;;;;4092524;28;20039;-69
2024/03/04 05:20:00;;;;;;;12.48;5.53;;;9.90;99.90;;;;;;4091104;28;20497;-70
2024/03/04 05:22:02;;;;;;;10.70;5.35;;;9.90;99.90;;;;;;4078629;28;20411;-71
2024/03/04 05:24:03;;;;;;;10.95;5.43;;;9.90;99.90;;;;;;4089072;28;20039;-70
2024/03/04 05:26:04;;;;;;;13.35;6.53;;;9.90;99.90;;;;;;4089633;28;20046;-70
2024/03/04 05:28:05;;;;;;;14.45;6.22;;;9.90;99.90;;;;;;4093106;28;20035;-69
2024/03/04 05:30:06;;;;;;;13.15;6.75;;;9.90;99.90;;;;;;4094118;28;20035;-69
2024/03/04 05:32:07;;;;;;;14.93;7.25;;;9.90;99.90;;;;;;4093305;28;20054;-68
2024/03/04 05:34:08;;;;;;;11.07;6.10;;;9.80;99.90;;;;;;4092968;28;20094;-66
2024/03/04 05:36:08;;;;;;;8.20;5.72;;;9.90;99.90;;;;;;4093837;28;20031;-66
2024/03/04 05:38:09;;;;;;;14.70;6.57;;;9.80;99.90;;;;;;4096620;28;20559;-66
2024/03/04 05:40:10;;;;;;;11.27;5.38;;;9.80;99.90;;;;;;4094036;28;20075;-68
2024/03/04 05:42:11;;;;;;;9.45;5.00;;;9.90;99.90;;;;;;4092263;28;20103;-66
2024/03/04 05:44:11;;;;;;;15.05;6.07;;;9.90;99.90;;;;;;4093897;28;20054;-69
2024/03/04 05:46:12;;;;;;;10.68;5.22;;;9.90;99.90;;;;;;4093415;28;20564;-66
2024/03/04 05:48:13;;;;;;;16.65;6.20;;;10.00;99.90;;;;;;4072857;28;20074;-67
2024/03/04 05:50:14;;;;;;;12.65;6.70;;;10.00;99.90;;;;;;4087437;28;20023;-65
2024/03/04 05:52:14;;;;;;;9.60;6.13;;;9.90;99.90;;;;;;4093278;28;20412;-66
2024/03/04 05:54:15;;;;;;;17.95;6.97;;;10.00;99.90;;;;;;4091602;28;20122;-68
2024/03/04 05:56:16;;;;;;;13.38;6.45;;;10.00;99.90;;;;;;4090746;28;20055;-67
2024/03/04 05:58:16;;;;;;;15.30;6.80;;;10.00;99.90;;;;;;4097605;28;20459;-66
2024/03/04 06:00:17;;;;;;;14.50;7.45;;;9.90;99.90;;;;;;4096433;28;20066;-67
2024/03/04 06:02:18;;;;;;;14.85;7.20;;;10.00;99.90;;;;;;4095246;28;20041;-66
2024/03/04 06:04:19;;;;;;;11.82;6.68;;;10.00;99.90;;;;;;4086098;29;20047;-68
2024/03/04 06:06:19;;;;;;;12.30;6.53;;;10.00;99.90;;;;;;4090993;28;20043;-66
2024/03/04 06:08:20;;;;;;;12.98;7.20;;;10.00;99.90;;;;;;4093604;28;20416;-67
2024/03/04 06:10:21;;;;;;;18.38;8.07;;;10.00;99.90;;;;;;4094939;28;20039;-69
2024/03/04 06:12:22;;;;;;;15.48;6.18;;;10.00;99.90;;;;;;4097502;28;20039;-67
2024/03/04 06:14:23;;;;;;;14.60;6.57;;;10.00;99.90;;;;;;4095782;28;20032;-70
2024/03/04 06:16:24;;;;;;;12.77;7.50;;;10.10;99.90;;;;;;4079047;28;20485;-67
2024/03/04 06:18:26;;;;;;;14.68;6.90;;;10.10;99.90;;;;;;4097097;28;20123;-67
2024/03/04 06:20:27;;;;;;;17.58;8.55;;;10.00;99.90;;;;;;4094249;28;20345;-67
2024/03/04 06:22:29;;;;;;;11.63;6.95;;;10.10;99.90;;;;;;4092053;28;20046;-67
2024/03/04 06:24:31;;;;;;;15.27;7.72;;;10.10;99.90;;;;;;4097045;28;21631;-66
2024/03/04 06:26:32;;;;;;;16.55;8.02;;;10.00;99.90;;;;;;4090868;28;20505;-68
2024/03/04 06:28:34;;;;;;;16.70;8.05;;;10.00;99.90;;;;;;4095339;28;20082;-67
2024/03/04 06:30:35;;;;;;;14.75;7.55;;;10.00;99.90;;;;;;4091651;28;20057;-69
2024/03/04 06:32:35;;;;;;;11.48;7.13;;;9.90;99.90;;;;;;4094485;28;20497;-69
2024/03/04 06:34:36;;;;;;;13.77;7.63;;;9.90;99.90;;;;;;4089066;28;20477;-68
2024/03/04 06:36:41;;;;;;;17.77;8.90;;;10.00;99.90;;;;;;4095961;28;20039;-68
2024/03/04 06:38:41;;;;;;;17.92;9.02;;;10.00;99.90;;;;;;4088103;28;20045;-68
2024/03/04 06:40:43;;;;;;;16.35;8.57;;;9.90;99.90;;;;;;4095728;28;20063;-67
2024/03/04 06:42:43;;;;;;;14.57;7.97;;;9.90;99.90;;;;;;4098834;28;20049;-69
2024/03/04 06:44:44;;;;;;;18.38;7.97;;;9.90;99.90;;;;;;4092784;28;20062;-69
2024/03/04 06:46:45;;;;;;;20.10;8.77;;;9.90;99.90;;;;;;4094911;28;20640;-69
2024/03/04 06:48:46;;;;;;;16.58;9.02;;;9.90;99.90;;;;;;4090548;28;20047;-69
2024/03/04 06:50:46;;;;;;;15.77;8.75;;;9.90;99.90;;;;;;4089068;28;20167;-69
2024/03/04 06:52:47;;;;;;;14.88;7.95;;;9.90;99.90;;;;;;4093307;28;20868;-69
2024/03/04 06:54:49;;;;;;;19.45;8.98;;;9.90;99.90;;;;;;4089154;28;20062;-69
2024/03/04 06:56:49;;;;;;;13.03;7.10;;;10.00;99.90;;;;;;4091407;28;20827;-68
2024/03/04 06:58:50;;;;;;;13.07;7.55;;;10.00;99.90;;;;;;4070518;28;20032;-69
2024/03/04 07:00:51;;;;;;;16.08;8.80;;;10.00;99.90;;;;;;4085813;28;20035;-69
2024/03/04 07:02:52;;;;;;;17.83;9.07;;;9.90;99.90;;;;;;4081985;28;20042;-69
2024/03/04 07:04:52;;;;;;;14.20;7.95;;;9.80;99.90;;;;;;4094114;28;20035;-68
2024/03/04 07:06:53;;;;;;;13.82;7.95;;;9.90;99.90;;;;;;4077104;29;20043;-69
2024/03/04 07:08:54;;;;;;;20.17;8.77;;;9.80;99.90;;;;;;4094189;28;20118;-69
2024/03/04 07:10:54;;;;;;;11.00;7.03;;;9.80;99.90;;;;;;4094353;28;20082;-68
2024/03/04 07:12:55;;;;;;;13.85;8.10;;;9.80;99.90;;;;;;4096638;28;20035;-69
2024/03/04 07:14:55;;;;;;;16.50;8.43;;;9.80;99.90;;;;;;4096494;28;20517;-69
2024/03/04 07:16:56;;;;;;;16.90;8.52;;;9.80;99.90;;;;;;4096516;28;20432;-69
2024/03/04 07:18:57;;;;;;;11.80;6.97;;;9.80;99.90;;;;;;4082714;28;20131;-69
2024/03/04 07:20:58;;;;;;;15.05;8.75;;;9.80;99.90;;;;;;4091352;28;20054;-69
2024/03/04 07:22:59;;;;;;;12.68;7.35;;;9.80;99.90;;;;;;4097891;28;20074;-69
2024/03/04 07:24:59;;;;;;;13.38;7.45;;;9.90;99.90;;;;;;4097861;28;20488;-69
2024/03/04 07:27:00;;;;;;;18.10;7.70;;;9.80;99.90;;;;;;4095270;28;20047;-70
2024/03/04 07:29:02;;;;;;;13.70;7.53;;;9.90;99.90;;;;;;4093275;28;20054;-69
2024/03/04 07:31:03;;;;;;;17.63;9.98;;;9.90;99.90;;;;;;4094390;28;20094;-69
2024/03/04 07:33:08;;;;;;;14.55;8.27;;;9.80;99.90;;;;;;4094896;28;20493;-69
2024/03/04 07:35:09;;;;;;;21.27;9.13;;;9.90;99.90;;;;;;4095433;28;20520;-69
2024/03/04 07:37:10;;;;;;;17.67;9.10;;;9.80;99.90;;;;;;4097612;28;20142;-69
2024/03/04 07:39:11;;;;;;;13.68;8.38;;;9.80;99.90;;;;;;4094605;28;20517;-69
2024/03/04 07:41:12;;;;;;;16.10;8.77;;;9.80;99.90;;;;;;4090323;28;20480;-69
2024/03/04 07:43:13;;;;;;;13.57;9.00;;;9.80;99.90;;;;;;4098783;28;20043;-69
2024/03/04 07:45:13;;;;;;;18.27;9.02;;;9.80;99.90;;;;;;4096610;28;20047;-69
2024/03/04 07:47:14;;;;;;;14.98;7.85;;;9.80;99.90;;;;;;4094218;28;20039;-68
2024/03/04 07:49:15;;;;;;;22.15;10.70;;;9.90;99.90;;;;;;4092446;28;20043;-69
2024/03/04 07:51:15;;;;;;;15.70;9.00;;;9.80;99.90;;;;;;4087529;28;20122;-69
2024/03/04 07:53:16;;;;;;;17.98;9.82;;;9.90;99.90;;;;;;4094605;28;20462;-68
2024/03/04 07:55:16;;;;;;;15.90;8.40;;;9.90;99.90;;;;;;4093260;28;20049;-67
2024/03/04 07:57:17;;;;;;;21.08;10.18;;;9.90;99.90;;;;;;4095250;28;20073;-68
2024/03/04 07:59:18;;;;;;;18.70;10.38;;;9.90;99.90;;;;;;4090609;28;20074;-67
2024/03/04 08:01:18;;;;;;;21.75;9.90;;;9.80;99.90;;;;;;4094321;28;20039;-68
2024/03/04 08:03:19;;;;;;;21.10;11.02;;;9.80;99.90;;;;;;4096157;28;20039;-67
2024/03/04 08:05:20;;;;;;;16.48;9.65;;;9.80;99.90;;;;;;4082880;28;20036;-66
2024/03/04 08:07:20;;;;;;;21.65;11.90;;;9.90;99.90;;;;;;4083781;29;20098;-68
2024/03/04 08:09:21;;;;;;;21.42;12.10;;;9.80;99.90;;;;;;4094939;28;20059;-68
2024/03/04 08:11:22;;;;;;;26.40;13.32;;;9.80;99.90;;;;;;4094289;28;20039;-67
2024/03/04 08:13:23;;;;;;;19.02;10.25;;;9.80;99.90;;;;;;4091149;28;20060;-70
2024/03/04 08:15:24;;;;;;;22.63;12.00;;;9.70;99.90;;;;;;4095138;28;20078;-67
2024/03/04 08:17:26;;;;;;;21.80;11.43;;;9.80;99.90;;;;;;4093256;28;20126;-69
2024/03/04 08:19:28;;;;;;;17.13;10.45;;;9.80;99.90;;;;;;4094453;28;20035;-68
2024/03/04 08:21:29;;;;;;;20.73;12.53;;;9.80;99.90;;;;;;4091025;28;20051;-69
2024/03/04 08:23:29;;;;;;;21.42;12.18;;;9.80;99.90;;;;;;4095185;28;20485;-68
2024/03/04 08:25:30;;;;;;;16.40;9.55;;;9.80;99.90;;;;;;4094743;28;20045;-66
2024/03/04 08:27:30;;;;;;;21.60;11.77;;;9.80;99.90;;;;;;4091257;28;20571;-67
2024/03/04 08:29:33;;;;;;;17.70;10.43;;;9.80;99.90;;;;;;4076265;28;20130;-67
2024/03/04 08:31:36;;;;;;;22.88;12.25;;;9.80;99.90;;;;;;4093955;28;20433;-67
2024/03/04 08:33:37;;;;;;;17.02;10.65;;;9.80;99.90;;;;;;4093532;28;20050;-67
2024/03/04 08:35:38;;;;;;;17.05;10.23;;;9.80;99.90;;;;;;4095495;28;20406;-67
2024/03/04 08:37:39;;;;;;;13.65;9.23;;;9.90;99.90;;;;;;4095126;28;20050;-67
2024/03/04 08:39:40;;;;;;;20.65;11.70;;;9.90;99.90;;;;;;4095156;28;20050;-67
2024/03/04 08:41:50;;;;;;;17.20;10.60;;;9.90;99.90;;;;;;4090104;28;20539;-66
2024/03/04 08:43:51;;;;;;;20.83;10.68;;;9.90;99.90;;;;;;4093492;28;20050;-68
2024/03/04 08:45:52;;;;;;;22.30;11.23;;;9.90;99.90;;;;;;4092429;28;20105;-67
2024/03/04 08:47:53;;;;;;;18.92;10.95;;;9.90;99.90;;;;;;4090687;28;20039;-68
2024/03/04 08:49:55;;;;;;;21.52;11.02;;;9.90;99.90;;;;;;4091845;28;20043;-68
2024/03/04 08:51:56;;;;;;;13.73;8.40;;;10.00;99.90;;;;;;4092253;28;20027;-67
2024/03/04 08:53:57;;;;;;;17.88;9.77;;;10.00;99.90;;;;;;4094025;28;20058;-69
2024/03/04 08:55:57;;;;;;;14.45;9.23;;;10.00;99.90;;;;;;4095778;28;20043;-69
2024/03/04 08:57:58;;;;;;;15.20;9.70;;;10.00;99.90;;;;;;4091071;28;20485;-67
2024/03/04 08:59:59;;;;;;;16.02;9.88;;;10.00;99.90;;;;;;4092324;28;20047;-66
2024/03/04 09:01:59;;;;;;;15.38;9.45;;;10.10;99.90;;;;;;4089891;28;20089;-67
2024/03/04 09:04:00;;;;;;;19.90;10.50;;;10.10;99.90;;;;;;4095376;28;20399;-68
2024/03/04 09:06:01;;;;;;;17.92;11.38;;;10.10;99.90;;;;;;4091665;28;20509;-70
2024/03/04 09:08:04;;;;;;;22.55;11.75;;;10.10;99.90;;;;;;4094950;28;20630;-68
2024/03/04 09:10:07;;;;;;;16.75;10.68;;;10.10;99.90;;;;;;4095703;28;20051;-69
2024/03/04 09:12:08;;;;;;;16.77;8.93;;;10.10;99.90;;;;;;4093714;28;20035;-69
2024/03/04 09:14:08;;;;;;;16.48;9.57;;;10.10;99.90;;;;;;4096267;28;20031;-69
2024/03/04 09:16:10;;;;;;;14.20;8.98;;;10.10;99.90;;;;;;4090850;28;20421;-69
2024/03/04 09:18:12;;;;;;;17.33;9.93;;;10.20;99.90;;;;;;4080761;28;20289;-69
2024/03/04 09:20:13;;;;;;;;;;;10.20;99.90;;;;;;4094070;28;20040;-69
2024/03/04 09:22:14;;;;;;;19.25;10.90;;;10.20;99.90;;;;;;4093177;28;19941;-69
2024/03/04 09:24:14;;;;;;;20.73;11.88;;;10.20;99.90;;;;;;4096436;28;20490;-69
2024/03/04 09:26:15;;;;;;;21.77;12.02;;;10.20;99.90;;;;;;4094138;28;20097;-68
2024/03/04 09:28:15;;;;;;;14.52;9.80;;;10.10;99.90;;;;;;4094600;28;20038;-68
2024/03/04 09:30:16;;;;;;;16.83;10.25;;;10.10;99.90;;;;;;4096967;28;20050;-68
2024/03/04 09:32:17;;;;;;;19.67;10.65;;;10.10;99.90;;;;;;4093780;28;20130;-69
2024/03/04 09:34:17;;;;;;;17.10;10.73;;;10.10;99.90;;;;;;4096696;28;20114;-69
2024/03/04 09:36:18;;;;;;;15.20;10.40;;;10.10;99.90;;;;;;4093805;28;20031;-69
2024/03/04 09:38:18;;;;;;;15.05;9.38;;;10.20;99.90;;;;;;4092211;28;20394;-69
2024/03/04 09:40:19;;;;;;;16.35;8.98;;;10.20;99.90;;;;;;4094853;28;20105;-70
2024/03/04 09:42:22;;;;;;;17.15;10.70;;;10.10;99.90;;;;;;4097755;28;20090;-69
2024/03/04 09:44:27;;;;;;;17.05;10.32;;;10.10;99.90;;;;;;4096236;28;20489;-69
2024/03/04 09:46:28;;;;;;;20.05;11.50;;;10.10;99.90;;;;;;4095350;28;20111;-69
2024/03/04 09:48:29;;;;;;;15.70;8.85;;;10.10;99.90;;;;;;4096203;28;20087;-69
2024/03/04 09:50:30;;;;;;;15.88;9.75;;;10.10;99.90;;;;;;4093565;28;20051;-68
2024/03/04 09:52:33;;;;;;;21.05;11.48;;;10.10;99.90;;;;;;4090948;28;20035;-70
2024/03/04 09:54:36;;;;;;;17.13;9.82;;;10.10;99.90;;;;;;4100728;28;20047;-68
2024/03/04 09:56:36;;;;;;;14.55;9.40;;;10.10;99.90;;;;;;4089231;28;20035;-69
2024/03/04 09:58:37;;;;;;;11.93;8.02;;;10.10;99.90;;;;;;4090863;28;20572;-70
2024/03/04 10:00:40;;;;;;;18.60;10.25;;;10.10;99.90;;;;;;4091666;28;20388;-69
2024/03/04 10:02:41;;;;;;;18.38;9.23;;;10.00;99.90;;;;;;4069985;28;20525;-68
2024/03/04 10:04:43;;;;;;;16.15;9.90;;;10.10;99.90;;;;;;4097239;28;20496;-68
2024/03/04 10:06:44;;;;;;;17.80;9.80;;;10.00;99.90;;;;;;4081328;28;20916;-69
2024/03/04 10:08:45;;;;;;;19.05;10.15;;;10.00;99.90;;;;;;4091875;28;20413;-68
2024/03/04 10:10:52;;;;;;;10.43;7.82;;;9.90;99.90;;;;;;4092764;28;20031;-68
2024/03/04 10:12:53;;;;;;;13.63;8.98;;;9.90;99.90;;;;;;4095535;28;20039;-69
2024/03/04 10:15:07;;;;;;;12.55;8.00;;;10.00;99.90;;;;;;4095983;28;20409;-70
2024/03/04 10:17:07;;;;;;;10.98;7.25;;;10.00;99.90;;;;;;4093852;28;20039;-70
2024/03/04 10:19:08;;;;;;;11.68;6.90;;;10.00;99.90;;;;;;4089522;28;20626;-69
2024/03/04 10:21:09;;;;;;;10.55;6.47;;;10.00;99.90;;;;;;4093644;28;20031;-70
2024/03/04 10:23:11;;;;;;;14.57;7.72;;;10.00;99.90;;;;;;4095612;28;20094;-69